CheckWX is a tool to help pilots better visualize weather data.  It is not intended as a substitute for an official pre-flight weather briefing.

01:12:38 UTC

FIMP METAR
Sir Seewoosagur Ramgoolam International Airport
Port Louis, Mauritius
Current

1 hour ago

FIMP 200000Z 08012KT 9999 VCSH SCT016 SCT050 21/18 Q1020
Observed
Jul-20 @ 00:00 UTC
Wind
  • 080° at 12 KTS
Visibility
10,000+ meters
Flight Rules
VFR
Cloud Levels
  • Scattered at 1,600' AGL
  • Scattered at 5,000' AGL
Temperature
21°C / 70°F
Dewpoint
18°C / 64°F
Humidity
83%
Altimeter
30.12" Hg
Pressure
1019.92 hPa
Previous

2 hours ago

FIMP 192300Z 08010KT 9999 FEW017 SCT050 21/19 Q1021
Observed
Jul-19 @ 23:00 UTC
Wind
  • 080° at 10 KTS
Visibility
10,000+ meters
Flight Rules
VFR
Cloud Levels
  • Few at 1,700' AGL
  • Scattered at 5,000' AGL
Temperature
21°C / 70°F
Dewpoint
19°C / 66°F
Humidity
88%
Altimeter
30.15" Hg
Pressure
1020.92 hPa
Previous

3 hours ago

FIMP 192200Z 07011KT 9999 BKN016 22/18 Q1021
Observed
Jul-19 @ 22:00 UTC
Wind
  • 070° at 11 KTS
Visibility
10,000+ meters
Flight Rules
MVFR
Cloud Levels
  • Broken at 1,600' AGL
Temperature
22°C / 72°F
Dewpoint
18°C / 64°F
Humidity
78%
Altimeter
30.15" Hg
Pressure
1020.92 hPa